• Join FlightAware (Why Join?)
  • Login
  • US Flag 
07:14PM EDT


 

Airport Tracker/Info


-or-


 

Live Flight TrackerFlight Track Log ✈ RPA3159 ✈ 12-May-2013 ✈ KBTV - KPHL

Flight Track Log - Related Links

Times and Time Zones

All times are in EDT time to prevent confusion due to time zone crossing. See the RPA3159 flight status page for this flight to view local times or setup timezone preferences in your user account.

Time Position Orientation Groundspeed Altitude Reporting Facility
EDT Latitude Longitude Course Direction KTS MPH feet Rate Location/Type
11:27AM 44.2058 -73.2500 180° South  Level FlightAware Approximate
11:28AM 44.1180 -73.2808 195° South  Level FlightAware Approximate
11:28AM 44.3894 -73.2942 195° South 279 321 9,800  Level Boston Center
11:29AM 44.0302 -73.3122 194° South  Level FlightAware Approximate
11:29AM 44.3142 -73.3192 193° South 276 318 11,900  Level Boston Center
11:30AM 43.9420 -73.3416 193° South  Level FlightAware Approximate
11:30AM 44.2328 -73.3469 194° South 298 343 14,800  Level Boston Center
11:31AM 43.8543 -73.3735 195° South  Level FlightAware Approximate
11:31AM 44.1511 -73.3775 195° South 304 350 17,600  Level Boston Center
11:32AM 43.7668 -73.4063 195° South  Level FlightAware Approximate
11:32AM 44.0736 -73.4400 210° Southwest 311 358 20,100  Level Boston Center
11:33AM 43.6792 -73.4391 195° South  Level FlightAware Approximate
11:33AM 44.0003 -73.5022 211° Southwest 323 372 22,300  Level Boston Center
11:34AM 43.9203 -73.5669 210° Southwest 328 377 24,300 1,800 Climbing Boston Center
11:35AM 43.8364 -73.6375 211° Southwest 328 377 26,000 840 Climbing Boston Center
11:36AM 43.7586 -73.7019 211° Southwest 328 377 26,000  Level Boston Center
11:37AM 43.6786 -73.7636 209° Southwest 328 377 26,000  Level Boston Center
11:38AM 43.6008 -73.8278 211° Southwest 328 377 26,000  Level Boston Center
11:39AM 43.5228 -73.8917 211° Southwest 328 377 26,000  Level Boston Center
11:40AM 43.4469 -73.9531 210° Southwest 328 377 26,000  Level Boston Center
11:41AM 43.3669 -74.0167 210° Southwest 328 377 26,000  Level Boston Center
11:42AM 43.2889 -74.0803 211° Southwest 328 377 26,000  Level Boston Center
11:43AM 43.2108 -74.1436 211° Southwest 328 377 26,000  Level Boston Center
11:44AM 43.1350 -74.2042 210° Southwest 328 377 26,000  Level Boston Center
11:45AM 43.0567 -74.2700 212° Southwest 328 377 26,000  Level Boston Center
11:46AM 42.9786 -74.3331 211° Southwest 328 377 26,000  Level Boston Center
11:47AM 42.9111 -74.3878 211° Southwest 328 377 26,000  Level Boston Center
11:48AM 42.8308 -74.4503 210° Southwest 328 377 26,000  Level Boston Center
11:49AM 42.7544 -74.5128 211° Southwest 328 377 26,000  Level Boston Center
11:50AM 42.6742 -74.5750 210° Southwest 328 377 26,000  Level Boston Center
11:51AM 42.5958 -74.6344 209° Southwest 328 377 26,000  Level Boston Center
11:52AM 42.5197 -74.6967 211° Southwest 328 377 26,000  Level Boston Center
11:53AM 42.4436 -74.7556 210° Southwest 328 377 26,000 -120 Level Boston Center
11:54AM 42.3089 -74.8564 209° Southwest 321 369 25,700 -780 Descending New York Center
11:55AM 42.2319 -74.9158 210° Southwest 327 376 24,000 -1,620 Descending New York Center
11:56AM 42.1633 -74.9703 210° Southwest 313 360 22,500 -1,740 Descending New York Center
11:57AM 42.0819 -75.0406 213° Southwest 319 367 20,500 -1,740 Descending New York Center
11:58AM 42.0089 -75.1028 212° Southwest 319 367 19,000 -780 Descending New York Center
11:59AM 41.9339 -75.1619 210° Southwest 313 360 19,000  Level New York Center
12:00PM 41.8694 -75.2133 211° Southwest 312 359 19,000  Level New York Center
12:01PM 41.7964 -75.2725 211° Southwest 312 359 19,000 -720 Level New York Center
12:02PM 41.7147 -75.3392 211° Southwest 312 359 17,600 -1,440 Descending New York Center
12:03PM 41.6417 -75.3981 211° Southwest 312 359 16,200 -1,560 Descending New York Center
12:04PM 41.5686 -75.4542 210° Southwest 307 353 14,600 -1,560 Descending New York Center
12:05PM 41.5042 -75.5078 212° Southwest 313 360 13,100 -1,380 Descending New York Center
12:06PM 41.4308 -75.5661 211° Southwest 313 360 11,900 -660 Descending New York Center
12:07PM 41.3600 -75.6219 211° Southwest 306 352 11,900 -60 Level New York Center
12:08PM 41.2844 -75.6800 210° Southwest 311 358 11,800 -900 Descending New York Center
12:09PM 41.1906 -75.6842 182° South 308 354 10,100 -960 Descending New York Center
12:10PM 41.1106 -75.6564 165° South 318 366 9,900 -120 Descending New York Center
12:11PM 41.0222 -75.6253 165° South 326 375 9,900  Level New York Center
12:12PM 40.9256 -75.5936 166° South 333 383 10,000  Climbing New York Center
12:13PM 40.8372 -75.5628 165° South 333 383 10,000  Level New York Center
12:14PM 40.7489 -75.5319 165° South 333 383 10,000  Level New York Center
12:15PM 40.6689 -75.5044 165° South 333 383 10,000  Level New York Center
12:16PM 40.5844 -75.4767 166° South 323 372 10,000  Level New York Center
12:17PM 40.5022 -75.4492 166° South 317 365 10,000 -300 Level New York Center
12:18PM 40.4325 -75.4200 162° South 281 323 9,500 -1,200 Descending New York Center
12:19PM 40.3592 -75.3794 157° South 281 323 7,700 -1,260 Descending New York Center
12:20PM 40.2836 -75.3364 157° South 281 323 7,000 -480 Descending New York Center
12:21PM 40.2164 -75.2994 157° South 283 326 6,800 -540 Descending New York Center
12:22PM 40.1428 -75.2592 157° South 283 326 6,000 -420 Descending New York Center
12:23PM 40.0675 -75.2136 155° Southeast 283 326 6,000  Level New York Center
12:24PM 40.0167 -75.1833 155° Southeast 239 275 6,000  Level Philadelphia TRACON
12:25PM 39.9833 -75.1167 123° Southeast 225 259 6,000 -540 Level Philadelphia TRACON
12:26PM 40.0000 -75.0333 75° East 208 239 4,900 -1,260 Descending Philadelphia TRACON
12:27PM 40.0000 -74.9667 90° East 194 223 3,400 -1,020 Descending Philadelphia TRACON
12:28PM 39.9500 -74.9833 194° South 177 204 3,000 -240 Descending Philadelphia TRACON
12:29PM 39.9167 -75.0167 217° Southwest 176 203 3,000 -360 Level Philadelphia TRACON
12:30PM 39.9000 -75.0833 252° West 164 189 2,400 -600 Descending Philadelphia TRACON